createdAt,value
2023-03-16T00:01:38.092Z,77.22
2023-03-16T00:04:06.337Z,77.12
2023-03-16T00:06:34.392Z,77.24
2023-03-16T00:09:02.563Z,77.26
2023-03-16T00:11:30.775Z,77.73
2023-03-16T00:13:59.752Z,78.36
2023-03-16T00:16:27.802Z,78.69
2023-03-16T00:18:59.274Z,79.03
2023-03-16T00:21:27.348Z,78.99
2023-03-16T00:23:55.499Z,79.23
2023-03-16T00:26:23.614Z,79.47
2023-03-16T00:28:54.327Z,79.21
2023-03-16T00:31:24.969Z,79.26
2023-03-16T00:33:53.128Z,78.98
2023-03-16T00:36:22.779Z,79.27
2023-03-16T00:38:51.316Z,78.84
2023-03-16T00:41:19.394Z,78.70
2023-03-16T00:43:48.943Z,79.04
2023-03-16T00:46:18.471Z,79.12
2023-03-16T00:48:48.105Z,79.93
2023-03-16T00:51:17.928Z,80.23
2023-03-16T00:53:48.083Z,80.26
2023-03-16T00:56:17.217Z,80.17
2023-03-16T00:58:45.500Z,79.62
2023-03-16T01:01:16.230Z,79.23
2023-03-16T01:03:44.414Z,79.05
2023-03-16T01:06:15.202Z,79.18
2023-03-16T01:08:43.561Z,79.33
2023-03-16T01:11:16.329Z,79.28
2023-03-16T01:13:44.802Z,79.66
2023-03-16T01:16:13.006Z,80.35
2023-03-16T01:18:41.679Z,80.85
2023-03-16T01:21:10.556Z,80.61
2023-03-16T01:23:38.839Z,80.43
2023-03-16T01:26:08.381Z,80.25
2023-03-16T01:28:38.026Z,80.11
2023-03-16T01:31:09.194Z,80.05
2023-03-16T01:33:37.806Z,80.50
2023-03-16T01:36:08.341Z,80.63
2023-03-16T01:38:36.608Z,80.45
2023-03-16T01:41:05.161Z,80.38
2023-03-16T01:43:35.040Z,80.28
2023-03-16T01:46:22.492Z,80.15
2023-03-16T01:49:05.548Z,80.28
2023-03-16T01:51:37.824Z,80.20
2023-03-16T01:54:08.926Z,80.37
2023-03-16T01:56:41.719Z,80.24
2023-03-16T01:59:15.196Z,80.48
2023-03-16T02:01:45.345Z,81.13
2023-03-16T02:04:23.070Z,81.14
2023-03-16T02:06:51.547Z,81.36
2023-03-16T02:09:20.438Z,81.44
2023-03-16T02:11:48.831Z,81.84
2023-03-16T02:14:16.909Z,82.17
2023-03-16T02:16:47.541Z,82.27
2023-03-16T02:19:19.675Z,82.53
2023-03-16T02:21:54.594Z,82.93
2023-03-16T02:24:23.190Z,82.90
2023-03-16T02:26:56.025Z,83.04
2023-03-16T02:29:41.777Z,83.26
2023-03-16T02:32:10.192Z,83.42
2023-03-16T02:34:38.557Z,83.46
2023-03-16T02:37:07.168Z,83.55
2023-03-16T02:39:35.527Z,83.65
2023-03-16T02:42:03.888Z,83.78
2023-03-16T02:44:34.780Z,83.62
2023-03-16T02:47:08.321Z,83.35
2023-03-16T02:49:38.562Z,83.52
2023-03-16T02:52:07.793Z,83.51
2023-03-16T02:54:35.910Z,83.84
2023-03-16T02:57:04.913Z,83.80
2023-03-16T02:59:33.080Z,83.96
2023-03-16T03:02:01.454Z,84.37
2023-03-16T03:04:33.070Z,84.68
2023-03-16T03:07:04.792Z,84.71
2023-03-16T03:09:33.773Z,84.69
2023-03-16T03:12:01.873Z,84.69
2023-03-16T03:14:29.967Z,84.77
2023-03-16T03:16:58.090Z,84.90
2023-03-16T03:19:26.306Z,85.01
2023-03-16T03:21:56.794Z,85.09
2023-03-16T03:24:25.355Z,85.33
2023-03-16T03:26:53.429Z,85.33
2023-03-16T03:29:21.534Z,85.38
2023-03-16T03:31:49.730Z,85.51
2023-03-16T03:34:17.884Z,85.47
2023-03-16T03:36:45.957Z,85.38
2023-03-16T03:39:15.409Z,85.49
2023-03-16T03:41:43.770Z,85.33
2023-03-16T03:44:11.907Z,85.46
2023-03-16T03:46:40.149Z,85.41
2023-03-16T03:49:08.331Z,85.33
2023-03-16T03:51:36.464Z,85.50
2023-03-16T03:54:04.724Z,85.26
2023-03-16T03:56:34.185Z,85.14
2023-03-16T03:59:05.184Z,85.25
2023-03-16T04:01:33.262Z,85.15
2023-03-16T04:04:01.402Z,85.08
2023-03-16T04:06:29.454Z,84.89
2023-03-16T04:08:57.787Z,84.69
2023-03-16T04:11:25.864Z,84.60
2023-03-16T04:13:55.328Z,84.61
2023-03-16T04:16:26.984Z,84.48
2023-03-16T04:18:55.188Z,84.38
2023-03-16T04:21:23.902Z,84.27
2023-03-16T04:23:54.295Z,84.18
2023-03-16T04:26:22.925Z,84.09
2023-03-16T04:28:51.005Z,83.93
2023-03-16T04:31:20.519Z,83.77
2023-03-16T04:33:48.719Z,83.69
2023-03-16T04:36:16.874Z,83.42
2023-03-16T04:38:45.141Z,83.48
2023-03-16T04:41:13.185Z,83.53
2023-03-16T04:43:41.281Z,83.49
2023-03-16T04:46:09.449Z,83.34
2023-03-16T04:48:39.290Z,83.32
2023-03-16T04:51:07.824Z,83.17
2023-03-16T04:53:36.140Z,82.76
2023-03-16T04:56:04.872Z,82.35
2023-03-16T04:58:32.996Z,82.18
2023-03-16T05:01:01.064Z,81.94
2023-03-16T05:03:29.239Z,81.89
2023-03-16T05:05:58.721Z,81.91
2023-03-16T05:08:26.925Z,82.41
2023-03-16T05:10:57.970Z,82.83
2023-03-16T05:13:26.349Z,83.05
2023-03-16T05:15:54.836Z,83.16
2023-03-16T05:18:22.996Z,83.09
2023-03-16T05:20:52.132Z,83.21
2023-03-16T05:23:21.846Z,83.33
2023-03-16T05:25:50.215Z,83.33
2023-03-16T05:28:18.738Z,83.32
2023-03-16T05:30:46.860Z,83.36
2023-03-16T05:33:14.996Z,83.53
2023-03-16T05:35:43.169Z,83.39
2023-03-16T05:38:11.326Z,83.64
2023-03-16T05:40:40.774Z,83.49
2023-03-16T05:43:08.910Z,83.54
2023-03-16T05:45:37.005Z,83.66
2023-03-16T05:48:06.415Z,83.81
2023-03-16T05:50:34.590Z,83.73
2023-03-16T05:53:02.728Z,83.65
2023-03-16T05:55:30.958Z,83.68
2023-03-16T05:58:00.608Z,83.60
2023-03-16T06:00:30.087Z,83.42
2023-03-16T06:02:58.497Z,83.25
2023-03-16T06:05:28.594Z,83.30
2023-03-16T06:07:56.813Z,83.23
2023-03-16T06:10:26.677Z,83.07
2023-03-16T06:12:54.931Z,82.91
2023-03-16T06:15:26.510Z,82.45
2023-03-16T06:17:54.601Z,82.12
2023-03-16T06:20:23.148Z,82.02
2023-03-16T06:22:51.415Z,81.85
2023-03-16T06:25:19.759Z,81.55
2023-03-16T06:27:49.135Z,81.36
2023-03-16T06:30:17.503Z,81.07
2023-03-16T06:32:47.035Z,80.96
2023-03-16T06:35:15.629Z,80.72
2023-03-16T06:37:43.727Z,80.51
2023-03-16T06:40:13.378Z,80.39
2023-03-16T06:42:41.484Z,80.32
2023-03-16T06:45:11.219Z,80.12
2023-03-16T06:47:39.341Z,80.00
2023-03-16T06:50:10.717Z,79.94
2023-03-16T06:52:38.943Z,79.78
2023-03-16T06:55:07.916Z,79.20
2023-03-16T06:57:36.076Z,78.78
2023-03-16T07:00:05.014Z,78.34
2023-03-16T07:02:35.765Z,77.64
2023-03-16T07:05:06.898Z,77.02
2023-03-16T07:07:36.377Z,76.28
2023-03-16T07:10:04.816Z,75.75
2023-03-16T07:12:32.880Z,75.24
2023-03-16T07:15:01.192Z,74.91
2023-03-16T07:17:29.270Z,74.61
2023-03-16T07:19:57.370Z,74.36
2023-03-16T07:22:25.471Z,74.09
2023-03-16T07:24:57.463Z,73.80
2023-03-16T07:27:25.978Z,73.19
2023-03-16T07:29:54.194Z,72.69
2023-03-16T07:32:23.859Z,72.44
2023-03-16T07:34:52.001Z,71.50
2023-03-16T07:37:25.365Z,70.92
2023-03-16T07:39:55.154Z,70.55
2023-03-16T07:42:23.810Z,69.96
2023-03-16T07:44:52.127Z,69.50
2023-03-16T07:47:20.414Z,69.24
2023-03-16T07:49:48.540Z,69.05
2023-03-16T07:52:16.618Z,68.95
2023-03-16T07:54:44.713Z,68.82
2023-03-16T07:57:14.226Z,68.49
2023-03-16T07:59:42.637Z,68.14
2023-03-16T08:02:13.555Z,67.94
2023-03-16T08:04:43.228Z,67.58
2023-03-16T08:07:11.484Z,67.10
2023-03-16T08:09:39.797Z,66.73
2023-03-16T08:12:09.976Z,66.05
2023-03-16T08:14:39.803Z,65.68
2023-03-16T08:17:08.448Z,65.03
2023-03-16T08:19:36.832Z,64.66
2023-03-16T08:22:05.662Z,64.18
2023-03-16T08:24:34.502Z,63.79
2023-03-16T08:27:03.657Z,63.43
2023-03-16T08:29:34.372Z,63.23
2023-03-16T08:32:03.861Z,63.07
2023-03-16T08:34:31.977Z,62.82
2023-03-16T08:37:01.175Z,62.71
2023-03-16T08:39:29.471Z,62.51
2023-03-16T08:41:57.735Z,62.22
2023-03-16T08:44:26.181Z,61.61
2023-03-16T08:46:54.322Z,61.23
2023-03-16T08:49:24.205Z,60.29
2023-03-16T08:51:52.344Z,59.61
2023-03-16T08:54:20.394Z,58.81
2023-03-16T08:56:48.507Z,57.89
2023-03-16T08:59:29.189Z,57.28
2023-03-16T09:01:58.211Z,56.83
2023-03-16T09:04:28.533Z,56.49
2023-03-16T09:07:08.525Z,55.96
2023-03-16T09:09:37.607Z,55.79
2023-03-16T09:12:07.094Z,55.50
2023-03-16T09:14:38.409Z,54.85
2023-03-16T09:17:07.669Z,54.85
2023-03-16T09:19:50.493Z,54.71
2023-03-16T09:22:19.863Z,54.74
2023-03-16T09:24:48.485Z,54.88
2023-03-16T09:27:16.757Z,54.75
2023-03-16T09:29:45.435Z,54.72
2023-03-16T09:32:14.305Z,54.05
2023-03-16T09:34:44.835Z,53.88
2023-03-16T09:37:12.923Z,53.85
2023-03-16T09:39:41.063Z,53.72
2023-03-16T09:42:16.057Z,53.42
2023-03-16T09:44:49.349Z,53.59
2023-03-16T09:47:18.332Z,53.45
2023-03-16T09:49:49.399Z,53.69
2023-03-16T09:52:27.184Z,53.57
2023-03-16T09:55:16.172Z,53.45
2023-03-16T09:58:20.339Z,52.93
2023-03-16T10:01:10.131Z,52.02
2023-03-16T10:04:24.084Z,51.35
2023-03-16T10:09:54.050Z,50.54
2023-03-16T10:12:23.638Z,50.29
2023-03-16T10:14:57.566Z,50.20
2023-03-16T10:17:30.214Z,49.63
2023-03-16T10:20:00.684Z,49.01
2023-03-16T10:22:34.887Z,49.18
2023-03-16T10:25:08.779Z,49.30
2023-03-16T10:27:38.808Z,48.99
2023-03-16T10:30:19.573Z,49.29
2023-03-16T10:32:48.292Z,49.34
2023-03-16T10:35:26.254Z,48.83
2023-03-16T10:37:56.790Z,48.84
2023-03-16T10:40:25.052Z,48.96
2023-03-16T10:42:53.447Z,48.84
2023-03-16T10:45:27.721Z,49.07
2023-03-16T10:48:06.448Z,49.24
2023-03-16T10:50:34.618Z,49.09
2023-03-16T10:53:04.278Z,48.56
2023-03-16T10:55:41.923Z,48.29
2023-03-16T10:58:10.599Z,47.89
2023-03-16T11:00:43.204Z,48.00
2023-03-16T11:03:23.137Z,47.98
2023-03-16T11:05:58.725Z,47.43
2023-03-16T11:08:29.100Z,47.77
2023-03-16T11:10:59.059Z,47.76
2023-03-16T11:13:33.845Z,46.96
2023-03-16T11:16:06.837Z,46.63
2023-03-16T11:18:39.096Z,46.57
2023-03-16T11:21:12.681Z,45.68
2023-03-16T11:23:48.389Z,45.38
2023-03-16T11:26:22.315Z,43.17
2023-03-16T11:28:54.954Z,42.89
2023-03-16T11:31:28.073Z,40.79
2023-03-16T11:33:57.542Z,40.52
2023-03-16T11:36:37.633Z,40.02
2023-03-16T11:39:14.768Z,39.34
2023-03-16T11:41:54.024Z,38.67
2023-03-16T11:44:27.918Z,38.09
2023-03-16T11:47:01.947Z,37.78
2023-03-16T11:49:42.815Z,37.64
2023-03-16T11:52:17.280Z,37.71
2023-03-16T11:55:00.775Z,37.84
2023-03-16T11:57:38.814Z,38.36
2023-03-16T12:00:21.329Z,38.62
2023-03-16T12:02:58.129Z,39.06
2023-03-16T12:05:43.029Z,38.01
2023-03-16T12:08:25.684Z,37.48
2023-03-16T12:10:58.684Z,37.15
2023-03-16T12:13:38.578Z,37.12
2023-03-16T12:16:11.673Z,36.78
2023-03-16T12:18:45.536Z,36.53
2023-03-16T12:21:16.266Z,36.61
2023-03-16T12:23:59.698Z,36.79
2023-03-16T12:26:31.127Z,36.73
2023-03-16T12:29:00.775Z,37.27
2023-03-16T12:31:36.684Z,37.16
2023-03-16T12:34:16.446Z,36.60
2023-03-16T12:37:02.736Z,36.70
2023-03-16T12:39:45.822Z,36.49
2023-03-16T12:42:52.734Z,36.07
2023-03-16T12:45:31.990Z,35.87
2023-03-16T12:48:07.983Z,35.90
2023-03-16T12:50:36.223Z,36.51
2023-03-16T12:53:06.540Z,36.00
2023-03-16T12:55:44.523Z,36.21
2023-03-16T12:58:12.720Z,36.07
2023-03-16T13:00:42.779Z,36.83
2023-03-16T13:03:15.446Z,36.82
2023-03-16T13:05:47.672Z,36.48
2023-03-16T13:08:17.669Z,36.18
2023-03-16T13:11:01.272Z,36.97
2023-03-16T13:13:29.513Z,36.81
2023-03-16T13:16:09.376Z,36.25
2023-03-16T13:18:45.113Z,36.38
2023-03-16T13:21:19.409Z,35.75
2023-03-16T13:23:56.290Z,36.17
2023-03-16T13:26:30.680Z,36.51
2023-03-16T13:28:58.979Z,36.66
2023-03-16T13:31:35.876Z,36.34
2023-03-16T13:34:04.203Z,36.53
2023-03-16T13:36:33.500Z,36.64
2023-03-16T13:39:07.964Z,36.73
2023-03-16T13:41:36.157Z,36.75
2023-03-16T13:44:05.636Z,36.60
2023-03-16T13:46:35.121Z,36.67
2023-03-16T13:49:03.222Z,36.82
2023-03-16T13:51:34.937Z,36.12
2023-03-16T13:54:08.985Z,35.41
2023-03-16T13:56:39.859Z,34.96
2023-03-16T13:59:10.568Z,34.98
2023-03-16T14:01:40.444Z,34.78
2023-03-16T14:04:13.936Z,34.70
2023-03-16T14:06:42.300Z,34.60
2023-03-16T14:09:16.318Z,33.02
2023-03-16T14:11:48.531Z,33.13
2023-03-16T14:14:18.179Z,33.44
2023-03-16T14:16:47.826Z,32.50
2023-03-16T14:19:20.303Z,32.32
2023-03-16T14:21:48.561Z,32.35
2023-03-16T14:24:25.494Z,32.32
2023-03-16T14:26:53.570Z,32.69
2023-03-16T14:29:25.943Z,32.56
2023-03-16T14:31:55.994Z,32.56
2023-03-16T14:34:31.432Z,32.11
2023-03-16T14:37:09.600Z,32.40
2023-03-16T14:39:40.375Z,31.94
2023-03-16T14:42:15.615Z,31.54
2023-03-16T14:44:43.972Z,31.63
2023-03-16T14:47:22.241Z,31.48
2023-03-16T14:49:50.992Z,31.54
2023-03-16T14:52:24.743Z,31.14
2023-03-16T14:54:53.999Z,30.92
2023-03-16T14:57:22.968Z,30.52
2023-03-16T14:59:51.520Z,30.32
2023-03-16T15:02:25.033Z,30.43
2023-03-16T15:04:53.620Z,30.73
2023-03-16T15:07:26.283Z,30.73
2023-03-16T15:09:55.985Z,31.02
2023-03-16T15:12:25.057Z,30.94
2023-03-16T15:15:11.051Z,30.98
2023-03-16T15:17:40.614Z,31.41
2023-03-16T15:20:10.160Z,31.36
2023-03-16T15:22:40.077Z,31.59
2023-03-16T15:25:30.778Z,31.45
2023-03-16T15:27:59.014Z,31.42
2023-03-16T15:30:28.750Z,31.67
2023-03-16T15:32:58.463Z,32.00
2023-03-16T15:35:26.590Z,31.79
2023-03-16T15:37:54.730Z,31.96
2023-03-16T15:40:25.344Z,32.27
2023-03-16T15:42:54.030Z,32.10
2023-03-16T15:45:23.544Z,32.31
2023-03-16T15:47:53.102Z,32.12
2023-03-16T15:50:24.749Z,32.28
2023-03-16T15:52:55.643Z,32.46
2023-03-16T15:55:30.238Z,32.27
2023-03-16T15:58:00.360Z,32.48
2023-03-16T16:00:31.792Z,32.71
2023-03-16T16:03:00.874Z,33.00
2023-03-16T16:05:31.021Z,33.29
2023-03-16T16:07:59.481Z,33.26
2023-03-16T16:10:28.701Z,33.51
2023-03-16T16:12:57.988Z,33.82
2023-03-16T16:15:29.426Z,33.95
2023-03-16T16:18:19.790Z,34.27
2023-03-16T16:20:48.387Z,34.44
2023-03-16T16:23:16.575Z,34.42
2023-03-16T16:25:46.039Z,34.73
2023-03-16T16:28:16.476Z,34.62
2023-03-16T16:30:45.154Z,35.01
2023-03-16T16:33:27.275Z,35.19
2023-03-16T16:35:58.032Z,35.26
2023-03-16T16:38:26.543Z,35.80
2023-03-16T16:40:58.085Z,35.80
2023-03-16T16:43:32.629Z,35.88
2023-03-16T16:46:01.702Z,36.02
2023-03-16T16:48:32.898Z,36.20
2023-03-16T16:51:02.501Z,36.40
2023-03-16T16:53:31.030Z,36.40
2023-03-16T16:55:59.319Z,36.51
2023-03-16T16:58:27.781Z,36.68
2023-03-16T17:00:57.924Z,36.72
2023-03-16T17:03:28.317Z,36.44
2023-03-16T17:05:57.993Z,36.77
2023-03-16T17:08:28.540Z,36.81
2023-03-16T17:10:57.210Z,37.08
2023-03-16T17:13:29.750Z,37.25
2023-03-16T17:15:58.888Z,37.45
2023-03-16T17:18:27.093Z,37.64
2023-03-16T17:20:56.832Z,37.79
2023-03-16T17:23:32.647Z,38.15
2023-03-16T17:26:03.208Z,38.68
2023-03-16T17:28:35.315Z,38.76
2023-03-16T17:31:04.275Z,39.00
2023-03-16T17:33:32.351Z,39.40
2023-03-16T17:36:02.057Z,39.40
2023-03-16T17:38:32.785Z,39.74
2023-03-16T17:41:01.254Z,39.85
2023-03-16T17:43:31.824Z,39.90
2023-03-16T17:46:00.841Z,39.69
2023-03-16T17:48:29.216Z,39.57
2023-03-16T17:50:57.328Z,39.67
2023-03-16T17:53:25.984Z,39.71
2023-03-16T17:55:55.655Z,39.81
2023-03-16T17:58:27.780Z,39.90
2023-03-16T18:00:56.286Z,39.75
2023-03-16T18:03:29.339Z,39.75
2023-03-16T18:05:58.680Z,39.97
2023-03-16T18:08:28.872Z,40.10
2023-03-16T18:11:00.568Z,40.13
2023-03-16T18:13:31.535Z,40.34
2023-03-16T18:16:00.606Z,40.47
2023-03-16T18:18:31.224Z,40.43
2023-03-16T18:21:00.603Z,40.67
2023-03-16T18:23:30.748Z,40.68
2023-03-16T18:26:02.217Z,40.84
2023-03-16T18:28:31.203Z,40.97
2023-03-16T18:31:00.148Z,41.33
2023-03-16T18:33:31.058Z,41.37
2023-03-16T18:36:00.694Z,41.83
2023-03-16T18:38:31.468Z,41.71
2023-03-16T18:41:02.137Z,41.75
2023-03-16T18:43:30.751Z,41.81
2023-03-16T18:45:58.893Z,42.13
2023-03-16T18:48:30.463Z,42.16
2023-03-16T18:51:01.246Z,42.28
2023-03-16T18:53:29.608Z,42.53
2023-03-16T18:55:57.882Z,42.47
2023-03-16T18:58:27.782Z,42.65
2023-03-16T19:00:57.663Z,42.77
2023-03-16T19:03:27.478Z,42.67
2023-03-16T19:05:57.065Z,43.12
2023-03-16T19:08:26.361Z,43.21
2023-03-16T19:10:56.453Z,43.34
2023-03-16T19:13:26.192Z,43.49
2023-03-16T19:15:57.749Z,43.55
2023-03-16T19:18:26.700Z,43.57
2023-03-16T19:20:56.612Z,43.97
2023-03-16T19:23:27.158Z,44.21
2023-03-16T19:25:56.030Z,44.34
2023-03-16T19:28:29.153Z,44.58
2023-03-16T19:30:58.729Z,44.60
2023-03-16T19:33:28.501Z,44.84
2023-03-16T19:36:43.196Z,44.87
2023-03-16T19:39:14.005Z,45.19
2023-03-16T19:41:42.587Z,45.53
2023-03-16T19:44:16.039Z,45.76
2023-03-16T19:46:46.173Z,45.86
2023-03-16T19:49:17.174Z,45.79
2023-03-16T19:51:45.321Z,45.99
2023-03-16T19:54:21.821Z,46.09
2023-03-16T19:56:50.584Z,46.42
2023-03-16T19:59:18.876Z,46.58
2023-03-16T20:01:49.377Z,46.53
2023-03-16T20:04:23.076Z,47.00
2023-03-16T20:06:51.943Z,46.90
2023-03-16T20:09:20.417Z,47.12
2023-03-16T20:11:48.969Z,47.18
2023-03-16T20:14:21.147Z,47.13
2023-03-16T20:16:51.080Z,47.32
2023-03-16T20:19:22.201Z,47.36
2023-03-16T20:21:50.871Z,47.41
2023-03-16T20:24:20.749Z,47.53
2023-03-16T20:26:51.418Z,47.44
2023-03-16T20:29:23.234Z,47.41
2023-03-16T20:31:52.825Z,47.39
2023-03-16T20:34:24.862Z,47.70
2023-03-16T20:36:53.022Z,47.54
2023-03-16T20:39:21.577Z,47.58
2023-03-16T20:41:49.917Z,47.55
2023-03-16T20:44:20.118Z,47.22
2023-03-16T20:46:48.334Z,47.12
2023-03-16T20:49:31.369Z,47.25
2023-03-16T20:51:59.781Z,47.30
2023-03-16T20:54:28.340Z,47.17
2023-03-16T20:56:56.537Z,47.20
2023-03-16T20:59:26.554Z,47.18
2023-03-16T21:01:55.824Z,47.10
2023-03-16T21:04:27.338Z,47.37
2023-03-16T21:06:56.865Z,47.51
2023-03-16T21:09:25.108Z,47.40
2023-03-16T21:11:53.242Z,47.49
2023-03-16T21:14:23.974Z,47.37
2023-03-16T21:16:52.592Z,47.36
2023-03-16T21:19:22.812Z,47.26
2023-03-16T21:21:52.493Z,47.34
2023-03-16T21:24:21.114Z,47.29
2023-03-16T21:26:49.578Z,47.39
2023-03-16T21:29:21.152Z,47.41
2023-03-16T21:31:49.583Z,47.40
2023-03-16T21:34:24.278Z,47.32
2023-03-16T21:36:54.010Z,47.29
2023-03-16T21:39:25.080Z,47.55
2023-03-16T21:41:53.609Z,47.51
2023-03-16T21:44:21.876Z,47.57
2023-03-16T21:46:50.919Z,47.42
2023-03-16T21:49:19.716Z,47.46
2023-03-16T21:51:48.031Z,47.38
2023-03-16T21:54:17.957Z,47.47
2023-03-16T21:56:47.723Z,47.47
2023-03-16T21:59:15.890Z,47.45
2023-03-16T22:02:00.373Z,47.53
2023-03-16T22:04:29.615Z,47.63
2023-03-16T22:06:57.753Z,47.67
2023-03-16T22:09:30.076Z,47.90
2023-03-16T22:11:58.446Z,47.89
2023-03-16T22:14:27.155Z,47.79
2023-03-16T22:16:55.874Z,47.82
2023-03-16T22:19:24.895Z,48.03
2023-03-16T22:21:52.985Z,48.08
2023-03-16T22:24:23.619Z,48.25
2023-03-16T22:26:53.842Z,48.44
2023-03-16T22:29:25.270Z,48.43
2023-03-16T22:31:55.806Z,48.54
2023-03-16T22:34:30.649Z,48.36
2023-03-16T22:36:59.745Z,48.59
2023-03-16T22:39:27.872Z,48.78
2023-03-16T22:41:57.458Z,48.74
2023-03-16T22:44:25.541Z,48.84
2023-03-16T22:46:53.617Z,48.86
2023-03-16T22:49:29.068Z,48.98
2023-03-16T22:51:58.539Z,49.06
2023-03-16T22:54:29.684Z,49.06
2023-03-16T22:56:59.221Z,49.20
2023-03-16T22:59:28.366Z,49.07
2023-03-16T23:01:56.542Z,49.39
2023-03-16T23:04:30.085Z,49.34
2023-03-16T23:06:58.602Z,49.50
2023-03-16T23:09:26.877Z,49.46
2023-03-16T23:11:56.548Z,49.47
2023-03-16T23:14:28.794Z,49.44
2023-03-16T23:16:57.264Z,49.48
2023-03-16T23:19:27.448Z,49.54
2023-03-16T23:21:56.744Z,49.65
2023-03-16T23:24:24.883Z,49.67
2023-03-16T23:26:54.350Z,49.77
2023-03-16T23:29:23.038Z,49.78
2023-03-16T23:31:53.621Z,49.72
2023-03-16T23:34:23.927Z,49.78
2023-03-16T23:36:52.624Z,49.89
2023-03-16T23:39:20.841Z,49.88
2023-03-16T23:41:50.623Z,49.94
2023-03-16T23:44:20.572Z,49.79
2023-03-16T23:46:48.660Z,49.92
2023-03-16T23:49:21.578Z,50.05
2023-03-16T23:51:49.848Z,49.94
2023-03-16T23:54:20.442Z,50.06
2023-03-16T23:56:48.724Z,50.24
2023-03-16T23:59:17.468Z,50.34
